| time (UTC) | temp F | wind direction | speed MPH | gust MPH | rain 1hr in | rain 24hr in | rain mn in | humidity % | barometer mb |
| 20260507033107 | 47 | 274 | 0.0 | 7.0 | 0.00 | 0.27 | 0.01 | 95 | 1010.9 |
| 20260507031602 | 47 | 279 | 1.0 | 6.0 | 0.00 | 0.27 | 0.01 | 95 | 1010.7 |
| 20260507030108 | 47 | 282 | 0.0 | 4.0 | 0.00 | 0.27 | 0.01 | 95 | 1010.7 |
| 20260507024609 | 47 | 275 | 0.0 | 4.0 | 0.00 | 0.27 | 0.01 | 95 | 1010.6 |
| 20260507023053 | 47 | 275 | 0.0 | 1.0 | 0.00 | 0.27 | 0.01 | 95 | 1010.6 |
| 20260507021555 | 47 | 274 | 0.0 | 2.0 | 0.00 | 0.27 | 0.01 | 95 | 1010.5 |
| 20260507020056 | 47 | 279 | 0.0 | 1.0 | 0.00 | 0.27 | 0.01 | 95 | 1010.5 |
| 20260507014555 | 47 | 279 | 0.0 | 6.0 | 0.00 | 0.27 | 0.01 | 95 | 1010.5 |
| 20260507013045 | 47 | 278 | 0.0 | 5.0 | 0.00 | 0.27 | 0.01 | 95 | 1010.3 |
| 20260507011548 | 47 | 278 | 0.0 | 5.0 | 0.00 | 0.27 | 0.01 | 95 | 1010.2 |
| 20260507010045 | 47 | 267 | 0.0 | 5.0 | 0.00 | 0.27 | 0.01 | 95 | 1010.2 |
| 20260507004543 | 47 | 265 | 0.0 | 7.0 | 0.00 | 0.27 | 0.01 | 95 | 1010.2 |
| 20260507003043 | 47 | 266 | 0.0 | 0.0 | 0.00 | 0.27 | 0.01 | 94 | 1010.2 |
| 20260507001542 | 47 | 266 | 0.0 | 2.0 | 0.00 | 0.27 | 0.01 | 94 | 1010.2 |
| 20260507000041 | 47 | 266 | 0.0 | 4.0 | 0.00 | 0.27 | 0.01 | 95 | 1010.2 |
| 20260506234552 | 47 | 263 | 0.0 | 5.0 | 0.00 | 0.27 | 0.01 | 94 | 1010.2 |
| 20260506233047 | 48 | 271 | 0.0 | 4.0 | 0.00 | 0.27 | 0.01 | 95 | 1010.2 |
| 20260506231537 | 48 | 267 | 0.0 | 5.0 | 0.00 | 0.27 | 0.01 | 95 | 1010.2 |
| 20260506230038 | 48 | 270 | 0.0 | 3.0 | 0.01 | 0.27 | 0.01 | 95 | 1010.2 |
| 20260506224540 | 48 | 281 | 1.0 | 5.0 | 0.01 | 0.27 | 0.01 | 95 | 1010.2 |
| 20260506223033 | 48 | 273 | 1.0 | 8.0 | 0.01 | 0.27 | 0.01 | 94 | 1010.1 |
| 20260506221531 | 48 | 282 | 1.0 | 6.0 | 0.02 | 0.27 | 0.01 | 95 | 1009.9 |
| 20260506220029 | 48 | 266 | 0.0 | 5.0 | 0.01 | 0.26 | 0.00 | 95 | 1009.8 |
| 20260506214526 | 48 | 281 | 1.0 | 6.0 | 0.01 | 0.26 | 0.26 | 95 | 1009.7 |
| 20260506213028 | 49 | 277 | 1.0 | 9.0 | 0.01 | 0.26 | 0.26 | 95 | 1009.5 |
| 20260506211530 | 49 | 265 | 2.0 | 9.0 | 0.00 | 0.25 | 0.25 | 94 | 1009.5 |
| 20260506210033 | 49 | 281 | 2.0 | 10.0 | 0.00 | 0.25 | 0.25 | 94 | 1009.4 |
| 20260506204528 | 49 | 282 | 0.0 | 8.0 | 0.01 | 0.25 | 0.25 | 94 | 1009.3 |
| 20260506203035 | 49 | 263 | 0.0 | 7.0 | 0.02 | 0.25 | 0.25 | 94 | 1009.3 |
| 20260506201526 | 50 | 275 | 0.0 | 5.0 | 0.02 | 0.25 | 0.25 | 94 | 1009.0 |
| 20260506200024 | 50 | 279 | 0.0 | 4.0 | 0.02 | 0.25 | 0.25 | 94 | 1009.0 |
| 20260506194522 | 50 | 281 | 0.0 | 3.0 | 0.02 | 0.24 | 0.24 | 94 | 1008.8 |
| 20260506193020 | 50 | 279 | 0.0 | 0.0 | 0.01 | 0.24 | 0.24 | 94 | 1008.6 |
| 20260506191521 | 51 | 274 | 0.0 | 4.0 | 0.02 | 0.24 | 0.24 | 94 | 1008.3 |
| 20260506190019 | 51 | 256 | 1.0 | 6.0 | 0.02 | 0.24 | 0.24 | 94 | 1008.0 |
| 20260506184518 | 51 | 275 | 0.0 | 3.0 | 0.02 | 0.24 | 0.23 | 94 | 1007.9 |
| 20260506183017 | 51 | 273 | 0.0 | 4.0 | 0.02 | 0.24 | 0.23 | 94 | 1007.8 |
| 20260506181516 | 51 | 258 | 1.0 | 7.0 | 0.04 | 0.24 | 0.22 | 94 | 1007.6 |
| 20260506180017 | 51 | 265 | 0.0 | 4.0 | 0.06 | 0.24 | 0.22 | 93 | 1007.5 |
| 20260506174514 | 51 | 264 | 0.0 | 4.0 | 0.09 | 0.24 | 0.21 | 93 | 1007.3 |
| 20260506173018 | 51 | 270 | 1.0 | 6.0 | 0.09 | 0.23 | 0.20 | 93 | 1007.4 |
| 20260506171515 | 51 | 270 | 0.0 | 5.0 | 0.09 | 0.21 | 0.19 | 93 | 1007.3 |
| 20260506170013 | 51 | 269 | 1.0 | 8.0 | 0.08 | 0.18 | 0.16 | 92 | 1007.2 |
| 20260506164511 | 52 | 265 | 0.0 | 5.0 | 0.06 | 0.15 | 0.13 | 92 | 1007.0 |
| 20260506163018 | 52 | 263 | 0.0 | 4.0 | 0.06 | 0.13 | 0.11 | 92 | 1006.9 |
| 20260506161511 | 53 | 257 | 0.0 | 4.0 | 0.07 | 0.12 | 0.09 | 91 | 1007.0 |
| 20260506160011 | 53 | 257 | 0.0 | 4.0 | 0.07 | 0.10 | 0.08 | 90 | 1006.9 |
| 20260506154508 | 53 | 261 | 0.0 | 7.0 | 0.08 | 0.11 | 0.08 | 89 | 1006.8 |
| 20260506153007 | 54 | 265 | 1.0 | 7.0 | 0.06 | 0.09 | 0.06 | 86 | 1006.7 |
| 20260506151508 | 55 | 273 | 0.0 | 10.0 | 0.03 | 0.06 | 0.03 | 82 | 1006.9 |
| 20260506150007 | 59 | 274 | 3.0 | 9.0 | 0.01 | 0.04 | 0.01 | 78 | 1006.6 |
| 20260506144507 | 61 | 274 | 0.0 | 3.0 | 0.00 | 0.08 | 0.00 | 72 | 1006.2 |
| 20260506143006 | 62 | 269 | 0.0 | 0.0 | 0.00 | 0.08 | 0.00 | 67 | 1006.1 |
| 20260506141504 | 63 | 270 | 0.0 | 3.0 | 0.00 | 0.08 | 0.00 | 62 | 1006.1 |
| 20260506140004 | 63 | 269 | 0.0 | 3.0 | 0.00 | 0.08 | 0.00 | 60 | 1006.0 |
| 20260506134504 | 63 | 269 | 0.0 | 0.0 | 0.00 | 0.09 | 0.00 | 61 | 1005.9 |
| 20260506133003 | 63 | 272 | 0.0 | 0.0 | 0.00 | 0.09 | 0.00 | 61 | 1005.8 |
| 20260506131505 | 62 | 272 | 0.0 | 4.0 | 0.00 | 0.09 | 0.00 | 60 | 1005.9 |
| 20260506130002 | 62 | 271 | 0.0 | 4.0 | 0.00 | 0.09 | 0.00 | 60 | 1005.7 |
| 20260506124501 | 62 | 279 | 0.0 | 3.0 | 0.00 | 0.09 | 0.00 | 60 | 1005.8 |
| 20260506123100 | 63 | 280 | 0.0 | 0.0 | 0.00 | 0.09 | 0.00 | 60 | 1005.8 |
| 20260506121559 | 63 | 234 | 0.0 | 3.0 | 0.00 | 0.09 | 0.00 | 60 | 1005.9 |
| 20260506120105 | 62 | 234 | 0.0 | 0.0 | 0.00 | 0.09 | 0.00 | 64 | 1006.2 |
| 20260506114552 | 62 | 234 | 0.0 | 2.0 | 0.00 | 0.09 | 0.00 | 67 | 1006.1 |
| 20260506113055 | 61 | 219 | 0.0 | 0.0 | 0.00 | 0.09 | 0.00 | 65 | 1006.2 |
| 20260506111548 | 61 | 227 | 0.0 | 4.0 | 0.00 | 0.09 | 0.00 | 71 | 1006.4 |
| 20260506110054 | 60 | 199 | 0.0 | 2.0 | 0.00 | 0.09 | 0.00 | 73 | 1006.5 |
| 20260506104551 | 60 | 195 | 0.0 | 0.0 | 0.00 | 0.09 | 0.00 | 74 | 1006.6 |
| 20260506103052 | 60 | 193 | 0.0 | 3.0 | 0.00 | 0.09 | 0.00 | 73 | 1006.6 |
| 20260506101557 | 60 | 276 | 0.0 | 0.0 | 0.00 | 0.09 | 0.00 | 75 | 1006.7 |
| 20260506094544 | 59 | 277 | 0.0 | 0.0 | 0.00 | 0.09 | 0.00 | 76 | 1006.6 |
| 20260506093047 | 59 | 277 | 0.0 | 0.0 | 0.00 | 0.09 | 0.00 | 78 | 1006.6 |
| 20260506091539 | 58 | 277 | 0.0 | 3.0 | 0.00 | 0.09 | 0.00 | 77 | 1006.7 |
| 20260506090037 | 58 | 277 | 0.0 | 4.0 | 0.00 | 0.09 | 0.00 | 77 | 1006.7 |
| 20260506084558 | 58 | 277 | 1.0 | 4.0 | 0.00 | 0.09 | 0.00 | 77 | 1006.7 |
| 20260506083036 | 58 | 277 | 0.0 | 5.0 | 0.00 | 0.09 | 0.00 | 78 | 1006.5 |
| 20260506081541 | 58 | 278 | 0.0 | 3.0 | 0.00 | 0.09 | 0.00 | 81 | 1006.6 |
| 20260506073036 | 54 | 279 | 0.0 | 4.0 | 0.00 | 0.09 | 0.00 | 93 | 1006.8 |
| 20260506071519 | 53 | 280 | 0.0 | 2.0 | 0.00 | 0.09 | 0.00 | 95 | 1006.6 |
| 20260506061513 | 51 | 280 | 0.0 | 0.0 | 0.00 | 0.09 | 0.00 | 95 | 1006.6 |
| 20260506044548 | 46 | 280 | 0.0 | 0.0 | 0.00 | 0.09 | 0.00 | 94 | 1007.0 |
| 20260506043016 | 46 | 280 | 0.0 | 0.0 | 0.00 | 0.09 | 0.00 | 93 | 1006.9 |
| 20260506041501 | 46 | 280 | 0.0 | 0.0 | 0.00 | 0.09 | 0.00 | 93 | 1007.1 |
| 20260506040100 | 46 | 280 | 0.0 | 0.0 | 0.00 | 0.09 | 0.00 | 93 | 1007.2 |
| 20260506034627 | 46 | 280 | 0.0 | 0.0 | 0.00 | 0.09 | 0.00 | 93 | 1007.4 |